sensor_id;sensor_type;location;lat;lon;timestamp;pressure;altitude;pressure_sealevel;temperature;humidity
63351;BME280;64988;51.058;17.040;2023-04-06T00:02:24;100624.25;;;5.83;50.78
63351;BME280;64988;51.058;17.040;2023-04-06T00:07:52;100620.97;;;5.78;50.75
63351;BME280;64988;51.058;17.040;2023-04-06T00:13:21;100621.28;;;5.72;50.14
63351;BME280;64988;51.058;17.040;2023-04-06T00:18:49;100620.22;;;5.59;50.54
63351;BME280;64988;51.058;17.040;2023-04-06T00:24:16;100630.94;;;5.42;51.38
63351;BME280;64988;51.058;17.040;2023-04-06T00:29:44;100622.03;;;5.41;50.67
63351;BME280;64988;51.058;17.040;2023-04-06T00:35:12;100620.06;;;5.45;50.37
63351;BME280;64988;51.058;17.040;2023-04-06T00:40:39;100616.69;;;5.41;50.14
63351;BME280;64988;51.058;17.040;2023-04-06T00:46:06;100613.47;;;5.35;51.46
63351;BME280;64988;51.058;17.040;2023-04-06T00:51:34;100612.50;;;5.53;51.19
63351;BME280;64988;51.058;17.040;2023-04-06T00:57:03;100618.34;;;5.44;51.18
63351;BME280;64988;51.058;17.040;2023-04-06T01:02:30;100614.59;;;5.63;50.94
63351;BME280;64988;51.058;17.040;2023-04-06T01:07:59;100622.16;;;5.22;52.76
63351;BME280;64988;51.058;17.040;2023-04-06T01:13:27;100623.06;;;5.39;52.07
63351;BME280;64988;51.058;17.040;2023-04-06T01:18:59;100615.53;;;5.62;51.08
63351;BME280;64988;51.058;17.040;2023-04-06T01:24:29;100616.94;;;5.69;50.31
63351;BME280;64988;51.058;17.040;2023-04-06T01:30:06;100618.88;;;5.50;49.56
63351;BME280;64988;51.058;17.040;2023-04-06T01:35:43;100618.75;;;5.36;48.91
63351;BME280;64988;51.058;17.040;2023-04-06T01:41:14;100618.03;;;5.15;48.81
63351;BME280;64988;51.058;17.040;2023-04-06T01:46:49;100611.03;;;4.96;49.29
63351;BME280;64988;51.058;17.040;2023-04-06T01:52:19;100612.28;;;4.89;49.20
63351;BME280;64988;51.058;17.040;2023-04-06T01:57:52;100611.41;;;4.88;50.03
63351;BME280;64988;51.058;17.040;2023-04-06T02:03:30;100617.63;;;4.89;50.24
63351;BME280;64988;51.058;17.040;2023-04-06T02:09:04;100610.31;;;4.92;50.35
63351;BME280;64988;51.058;17.040;2023-04-06T02:14:33;100611.53;;;5.04;49.80
63351;BME280;64988;51.058;17.040;2023-04-06T02:20:00;100611.53;;;5.04;49.08
63351;BME280;64988;51.058;17.040;2023-04-06T02:25:28;100608.69;;;4.90;49.27
63351;BME280;64988;51.058;17.040;2023-04-06T02:30:55;100601.69;;;4.87;49.92
63351;BME280;64988;51.058;17.040;2023-04-06T02:36:26;100605.78;;;4.94;49.82
63351;BME280;64988;51.058;17.040;2023-04-06T02:41:53;100613.31;;;4.86;50.21
63351;BME280;64988;51.058;17.040;2023-04-06T02:47:23;100615.38;;;4.81;49.97
63351;BME280;64988;51.058;17.040;2023-04-06T02:52:53;100627.06;;;4.78;51.01
63351;BME280;64988;51.058;17.040;2023-04-06T02:58:20;100627.81;;;4.99;50.61
63351;BME280;64988;51.058;17.040;2023-04-06T03:03:52;100619.78;;;4.99;50.95
63351;BME280;64988;51.058;17.040;2023-04-06T03:09:24;100631.44;;;5.15;50.61
63351;BME280;64988;51.058;17.040;2023-04-06T03:14:51;100635.03;;;5.14;50.66
63351;BME280;64988;51.058;17.040;2023-04-06T03:20:19;100641.91;;;5.20;51.29
63351;BME280;64988;51.058;17.040;2023-04-06T03:25:47;100633.38;;;5.46;49.73
63351;BME280;64988;51.058;17.040;2023-04-06T03:31:18;100643.84;;;5.34;49.19
63351;BME280;64988;51.058;17.040;2023-04-06T03:37:08;100654.88;;;5.27;49.13
63351;BME280;64988;51.058;17.040;2023-04-06T03:42:47;100653.06;;;5.28;49.91
63351;BME280;64988;51.058;17.040;2023-04-06T03:48:15;100654.31;;;5.21;50.28
63351;BME280;64988;51.058;17.040;2023-04-06T03:53:43;100658.97;;;5.35;50.46
63351;BME280;64988;51.058;17.040;2023-04-06T03:59:11;100666.44;;;5.45;49.99
63351;BME280;64988;51.058;17.040;2023-04-06T04:04:39;100664.16;;;5.38;49.58
63351;BME280;64988;51.058;17.040;2023-04-06T04:10:06;100666.38;;;5.29;49.38
63351;BME280;64988;51.058;17.040;2023-04-06T04:15:35;100666.53;;;5.26;49.22
63351;BME280;64988;51.058;17.040;2023-04-06T04:21:03;100662.03;;;5.27;49.28
63351;BME280;64988;51.058;17.040;2023-04-06T04:26:31;100665.91;;;5.21;49.30
63351;BME280;64988;51.058;17.040;2023-04-06T04:31:58;100664.16;;;5.38;49.26
63351;BME280;64988;51.058;17.040;2023-04-06T04:37:26;100659.84;;;5.52;48.49
63351;BME280;64988;51.058;17.040;2023-04-06T04:42:55;100649.50;;;5.62;48.94
63351;BME280;64988;51.058;17.040;2023-04-06T04:48:28;100663.19;;;5.90;48.88
63351;BME280;64988;51.058;17.040;2023-04-06T04:53:59;100661.63;;;6.34;48.53
63351;BME280;64988;51.058;17.040;2023-04-06T04:59:30;100671.72;;;6.92;48.90
63351;BME280;64988;51.058;17.040;2023-04-06T05:05:05;100670.31;;;7.46;48.40
63351;BME280;64988;51.058;17.040;2023-04-06T05:10:34;100663.56;;;7.97;47.96
63351;BME280;64988;51.058;17.040;2023-04-06T05:16:03;100668.28;;;8.36;48.45
63351;BME280;64988;51.058;17.040;2023-04-06T05:21:32;100666.63;;;8.88;48.00
63351;BME280;64988;51.058;17.040;2023-04-06T05:27:04;100669.94;;;9.58;48.41
63351;BME280;64988;51.058;17.040;2023-04-06T05:32:32;100663.75;;;10.21;47.00
63351;BME280;64988;51.058;17.040;2023-04-06T05:38:00;100670.66;;;11.21;47.46
63351;BME280;64988;51.058;17.040;2023-04-06T05:43:28;100672.69;;;12.33;44.84
63351;BME280;64988;51.058;17.040;2023-04-06T05:48:57;100662.25;;;13.68;41.23
63351;BME280;64988;51.058;17.040;2023-04-06T05:54:28;100666.19;;;15.06;38.57
63351;BME280;64988;51.058;17.040;2023-04-06T05:59:59;100664.19;;;16.04;35.83
63351;BME280;64988;51.058;17.040;2023-04-06T06:05:37;100666.44;;;18.42;34.78
63351;BME280;64988;51.058;17.040;2023-04-06T06:11:10;100678.22;;;20.79;28.67
63351;BME280;64988;51.058;17.040;2023-04-06T06:16:38;100673.53;;;21.35;23.20
63351;BME280;64988;51.058;17.040;2023-04-06T06:22:07;100675.25;;;22.85;24.03
63351;BME280;64988;51.058;17.040;2023-04-06T06:27:39;100682.22;;;24.10;21.73
63351;BME280;64988;51.058;17.040;2023-04-06T06:33:07;100684.16;;;24.65;20.17
63351;BME280;64988;51.058;17.040;2023-04-06T06:38:35;100671.09;;;25.28;19.45
63351;BME280;64988;51.058;17.040;2023-04-06T06:44:03;100682.13;;;26.60;17.34
63351;BME280;64988;51.058;17.040;2023-04-06T06:49:31;100683.81;;;25.83;17.31
63351;BME280;64988;51.058;17.040;2023-04-06T06:55:00;100683.34;;;27.86;16.10
63351;BME280;64988;51.058;17.040;2023-04-06T07:00:27;100675.88;;;29.70;15.26
63351;BME280;64988;51.058;17.040;2023-04-06T07:05:55;100682.38;;;31.16;13.28
63351;BME280;64988;51.058;17.040;2023-04-06T07:11:24;100681.28;;;32.14;12.94
63351;BME280;64988;51.058;17.040;2023-04-06T07:16:51;100684.94;;;31.58;12.90
63351;BME280;64988;51.058;17.040;2023-04-06T07:22:20;100688.13;;;32.06;12.85
63351;BME280;64988;51.058;17.040;2023-04-06T07:27:48;100694.31;;;32.75;12.98
63351;BME280;64988;51.058;17.040;2023-04-06T07:33:17;100693.91;;;33.92;12.17
63351;BME280;64988;51.058;17.040;2023-04-06T07:38:46;100696.84;;;31.82;12.23
63351;BME280;64988;51.058;17.040;2023-04-06T07:44:13;100698.91;;;32.31;12.84
63351;BME280;64988;51.058;17.040;2023-04-06T07:49:41;100699.72;;;31.18;13.25
63351;BME280;64988;51.058;17.040;2023-04-06T07:55:09;100700.00;;;30.59;12.61
63351;BME280;64988;51.058;17.040;2023-04-06T08:00:36;100695.81;;;30.27;13.52
63351;BME280;64988;51.058;17.040;2023-04-06T08:06:04;100687.56;;;30.32;12.26
63351;BME280;64988;51.058;17.040;2023-04-06T08:11:33;100695.06;;;31.36;10.37
63351;BME280;64988;51.058;17.040;2023-04-06T08:16:59;100686.47;;;31.26;10.49
63351;BME280;64988;51.058;17.040;2023-04-06T08:22:27;100700.53;;;31.31;10.04
63351;BME280;64988;51.058;17.040;2023-04-06T08:27:55;100696.88;;;32.27;9.74
63351;BME280;64988;51.058;17.040;2023-04-06T08:33:22;100692.38;;;30.66;10.12
63351;BME280;64988;51.058;17.040;2023-04-06T08:38:50;100684.00;;;30.43;9.92
63351;BME280;64988;51.058;17.040;2023-04-06T08:44:18;100685.69;;;30.79;9.55
63351;BME280;64988;51.058;17.040;2023-04-06T08:49:45;100682.41;;;29.64;10.07
63351;BME280;64988;51.058;17.040;2023-04-06T08:55:13;100679.38;;;29.17;10.44
63351;BME280;64988;51.058;17.040;2023-04-06T09:00:40;100687.09;;;28.97;11.52
63351;BME280;64988;51.058;17.040;2023-04-06T09:06:08;100682.66;;;27.08;12.28
63351;BME280;64988;51.058;17.040;2023-04-06T09:17:20;100672.38;;;26.19;12.43
63351;BME280;64988;51.058;17.040;2023-04-06T09:22:48;100661.91;;;25.75;13.16
63351;BME280;64988;51.058;17.040;2023-04-06T09:28:17;100663.28;;;24.90;13.36
63351;BME280;64988;51.058;17.040;2023-04-06T09:33:45;100664.13;;;24.56;14.01
63351;BME280;64988;51.058;17.040;2023-04-06T09:39:13;100661.03;;;23.68;14.15
63351;BME280;64988;51.058;17.040;2023-04-06T09:44:42;100656.91;;;24.28;13.17
63351;BME280;64988;51.058;17.040;2023-04-06T09:50:13;100656.47;;;24.52;15.43
63351;BME280;64988;51.058;17.040;2023-04-06T09:55:43;100644.59;;;21.70;15.79
63351;BME280;64988;51.058;17.040;2023-04-06T10:01:13;100645.31;;;21.41;16.44
63351;BME280;64988;51.058;17.040;2023-04-06T10:06:43;100653.00;;;20.21;17.01
63351;BME280;64988;51.058;17.040;2023-04-06T10:12:16;100646.13;;;19.36;17.51
63351;BME280;64988;51.058;17.040;2023-04-06T10:17:44;100641.88;;;20.14;17.96
63351;BME280;64988;51.058;17.040;2023-04-06T10:29:04;100632.50;;;18.52;19.62
63351;BME280;64988;51.058;17.040;2023-04-06T10:34:35;100632.44;;;19.28;19.88
63351;BME280;64988;51.058;17.040;2023-04-06T10:40:03;100622.63;;;18.93;19.20
63351;BME280;64988;51.058;17.040;2023-04-06T10:45:32;100618.56;;;18.63;20.09
63351;BME280;64988;51.058;17.040;2023-04-06T10:50:59;100616.69;;;17.43;20.90
63351;BME280;64988;51.058;17.040;2023-04-06T10:56:29;100625.44;;;16.20;21.24
63351;BME280;64988;51.058;17.040;2023-04-06T11:01:57;100610.03;;;16.38;21.83
63351;BME280;64988;51.058;17.040;2023-04-06T11:07:26;100611.06;;;16.64;20.94
63351;BME280;64988;51.058;17.040;2023-04-06T11:12:55;100603.81;;;15.62;23.00
63351;BME280;64988;51.058;17.040;2023-04-06T11:18:22;100604.25;;;15.19;22.66
63351;BME280;64988;51.058;17.040;2023-04-06T11:29:49;100575.50;;;16.84;21.24
63351;BME280;64988;51.058;17.040;2023-04-06T11:35:23;100579.00;;;16.21;21.57
63351;BME280;64988;51.058;17.040;2023-04-06T11:40:54;100577.09;;;16.32;21.32
63351;BME280;64988;51.058;17.040;2023-04-06T11:46:22;100572.47;;;16.69;22.28
63351;BME280;64988;51.058;17.040;2023-04-06T11:51:49;100570.63;;;17.22;22.55
63351;BME280;64988;51.058;17.040;2023-04-06T11:57:18;100557.88;;;17.49;21.24
63351;BME280;64988;51.058;17.040;2023-04-06T12:02:46;100572.91;;;16.00;21.71
63351;BME280;64988;51.058;17.040;2023-04-06T12:08:14;100554.19;;;16.52;21.88
63351;BME280;64988;51.058;17.040;2023-04-06T12:13:42;100540.50;;;16.07;22.04
63351;BME280;64988;51.058;17.040;2023-04-06T12:19:10;100540.41;;;15.52;22.79
63351;BME280;64988;51.058;17.040;2023-04-06T12:24:37;100536.13;;;16.23;22.51
63351;BME280;64988;51.058;17.040;2023-04-06T12:30:05;100531.13;;;16.19;22.82
63351;BME280;64988;51.058;17.040;2023-04-06T12:35:38;100527.31;;;15.75;23.72
63351;BME280;64988;51.058;17.040;2023-04-06T12:41:07;100510.19;;;16.19;23.84
63351;BME280;64988;51.058;17.040;2023-04-06T12:46:35;100502.41;;;15.70;23.06
63351;BME280;64988;51.058;17.040;2023-04-06T12:52:03;100512.03;;;15.55;23.43
63351;BME280;64988;51.058;17.040;2023-04-06T12:57:31;100502.94;;;15.08;23.62
63351;BME280;64988;51.058;17.040;2023-04-06T13:02:58;100491.78;;;15.11;23.59
63351;BME280;64988;51.058;17.040;2023-04-06T13:08:39;100496.19;;;14.45;23.80
63351;BME280;64988;51.058;17.040;2023-04-06T13:20:42;100481.34;;;14.87;23.70
63351;BME280;64988;51.058;17.040;2023-04-06T13:26:09;100465.75;;;16.19;24.79
63351;BME280;64988;51.058;17.040;2023-04-06T13:31:38;100473.78;;;15.66;22.43
63351;BME280;64988;51.058;17.040;2023-04-06T13:37:05;100473.66;;;15.58;22.60
63351;BME280;64988;51.058;17.040;2023-04-06T13:42:34;100470.41;;;15.82;22.00
63351;BME280;64988;51.058;17.040;2023-04-06T13:48:02;100455.19;;;16.16;21.82
63351;BME280;64988;51.058;17.040;2023-04-06T13:53:29;100457.78;;;16.35;21.41
63351;BME280;64988;51.058;17.040;2023-04-06T13:58:56;100463.09;;;15.36;22.50
63351;BME280;64988;51.058;17.040;2023-04-06T14:04:24;100449.19;;;14.63;23.06
63351;BME280;64988;51.058;17.040;2023-04-06T14:09:53;100449.28;;;15.66;22.51
63351;BME280;64988;51.058;17.040;2023-04-06T14:15:21;100452.44;;;15.61;22.93
63351;BME280;64988;51.058;17.040;2023-04-06T14:20:56;100439.25;;;15.94;22.30
63351;BME280;64988;51.058;17.040;2023-04-06T14:26:26;100444.78;;;15.38;22.35
63351;BME280;64988;51.058;17.040;2023-04-06T14:31:57;100438.09;;;15.96;22.62
63351;BME280;64988;51.058;17.040;2023-04-06T14:37:27;100434.53;;;15.96;22.69
63351;BME280;64988;51.058;17.040;2023-04-06T14:42:55;100438.59;;;15.55;22.77
63351;BME280;64988;51.058;17.040;2023-04-06T14:48:24;100436.41;;;15.95;22.30
63351;BME280;64988;51.058;17.040;2023-04-06T14:53:52;100426.00;;;16.08;22.53
63351;BME280;64988;51.058;17.040;2023-04-06T14:59:20;100427.66;;;16.54;22.12
63351;BME280;64988;51.058;17.040;2023-04-06T15:04:48;100420.41;;;16.45;21.34
63351;BME280;64988;51.058;17.040;2023-04-06T15:10:15;100423.47;;;16.77;21.70
63351;BME280;64988;51.058;17.040;2023-04-06T15:15:43;100406.25;;;17.46;20.85
63351;BME280;64988;51.058;17.040;2023-04-06T15:21:12;100429.88;;;16.06;21.86
63351;BME280;64988;51.058;17.040;2023-04-06T15:26:40;100412.72;;;16.23;22.12
63351;BME280;64988;51.058;17.040;2023-04-06T15:32:08;100415.94;;;15.91;22.23
63351;BME280;64988;51.058;17.040;2023-04-06T15:37:38;100404.63;;;16.31;22.13
63351;BME280;64988;51.058;17.040;2023-04-06T15:43:06;100402.25;;;15.73;22.76
63351;BME280;64988;51.058;17.040;2023-04-06T15:48:34;100405.47;;;15.87;22.76
63351;BME280;64988;51.058;17.040;2023-04-06T15:54:02;100404.78;;;15.57;22.81
63351;BME280;64988;51.058;17.040;2023-04-06T15:59:30;100408.22;;;15.03;23.61
63351;BME280;64988;51.058;17.040;2023-04-06T16:04:58;100406.78;;;15.09;24.15
63351;BME280;64988;51.058;17.040;2023-04-06T16:10:29;100416.53;;;14.25;24.48
63351;BME280;64988;51.058;17.040;2023-04-06T16:15:57;100406.16;;;14.59;24.22
63351;BME280;64988;51.058;17.040;2023-04-06T16:21:25;100409.16;;;14.65;24.48
63351;BME280;64988;51.058;17.040;2023-04-06T16:26:53;100403.28;;;14.60;24.63
63351;BME280;64988;51.058;17.040;2023-04-06T16:32:21;100395.41;;;14.86;23.93
63351;BME280;64988;51.058;17.040;2023-04-06T16:37:51;100397.56;;;14.44;24.27
63351;BME280;64988;51.058;17.040;2023-04-06T16:43:22;100394.66;;;14.17;24.95
63351;BME280;64988;51.058;17.040;2023-04-06T16:48:49;100407.75;;;13.93;25.00
63351;BME280;64988;51.058;17.040;2023-04-06T16:54:17;100407.13;;;13.30;25.75
63351;BME280;64988;51.058;17.040;2023-04-06T16:59:46;100409.53;;;13.63;25.84
63351;BME280;64988;51.058;17.040;2023-04-06T17:05:14;100408.16;;;13.69;26.28
63351;BME280;64988;51.058;17.040;2023-04-06T17:10:45;100409.00;;;13.70;26.16
63351;BME280;64988;51.058;17.040;2023-04-06T17:16:31;100418.66;;;13.02;27.08
63351;BME280;64988;51.058;17.040;2023-04-06T17:22:01;100406.16;;;13.10;27.45
63351;BME280;64988;51.058;17.040;2023-04-06T17:27:29;100410.88;;;13.08;26.81
63351;BME280;64988;51.058;17.040;2023-04-06T17:32:57;100414.06;;;13.02;27.83
63351;BME280;64988;51.058;17.040;2023-04-06T17:38:26;100407.38;;;13.06;27.41
63351;BME280;64988;51.058;17.040;2023-04-06T17:43:54;100414.53;;;13.07;27.66
63351;BME280;64988;51.058;17.040;2023-04-06T17:49:22;100417.38;;;12.64;28.16
63351;BME280;64988;51.058;17.040;2023-04-06T17:54:51;100424.72;;;12.74;28.57
63351;BME280;64988;51.058;17.040;2023-04-06T18:00:20;100424.03;;;12.40;29.18
63351;BME280;64988;51.058;17.040;2023-04-06T18:05:53;100427.16;;;12.77;28.54
63351;BME280;64988;51.058;17.040;2023-04-06T18:11:21;100427.50;;;13.04;27.97
63351;BME280;64988;51.058;17.040;2023-04-06T18:16:49;100429.44;;;12.60;28.36
63351;BME280;64988;51.058;17.040;2023-04-06T18:22:16;100427.84;;;12.69;28.61
63351;BME280;64988;51.058;17.040;2023-04-06T18:27:45;100435.28;;;12.77;28.53
63351;BME280;64988;51.058;17.040;2023-04-06T18:33:13;100429.16;;;12.75;28.22
63351;BME280;64988;51.058;17.040;2023-04-06T18:38:42;100439.75;;;12.67;28.53
63351;BME280;64988;51.058;17.040;2023-04-06T18:44:10;100441.22;;;12.71;28.08
63351;BME280;64988;51.058;17.040;2023-04-06T18:49:38;100433.88;;;12.61;28.59
63351;BME280;64988;51.058;17.040;2023-04-06T18:55:06;100442.72;;;12.95;28.35
63351;BME280;64988;51.058;17.040;2023-04-06T19:00:33;100446.56;;;13.13;28.21
63351;BME280;64988;51.058;17.040;2023-04-06T19:06:04;100443.88;;;12.29;29.62
63351;BME280;64988;51.058;17.040;2023-04-06T19:11:35;100443.13;;;12.80;28.61
63351;BME280;64988;51.058;17.040;2023-04-06T19:17:05;100438.19;;;12.64;28.87
63351;BME280;64988;51.058;17.040;2023-04-06T19:22:37;100446.03;;;12.67;29.48
63351;BME280;64988;51.058;17.040;2023-04-06T19:28:07;100445.75;;;12.49;29.13
63351;BME280;64988;51.058;17.040;2023-04-06T19:33:38;100441.22;;;12.50;29.46
63351;BME280;64988;51.058;17.040;2023-04-06T19:39:11;100437.41;;;12.41;29.55
